Time;durP1;ratioP1;P1;durP2;ratioP2;P2;SDS_P1;SDS_P2;PMS_P1;PMS_P2;Temp;Humidity;BMP_temperature;BMP_pressure;BME280_temperature;BME280_humidity;BME280_pressure;Samples;Min_cycle;Max_cycle;Signal;HPM_P1;HPM_P2
2024/01/11 00:00:13;;;;;;;19.52;13.13;;;;;;;-7.70;63.72;94293.34;523729;28;877;-70
2024/01/11 00:00:29;;;;;;;19.95;12.90;;;;;;;-7.66;63.80;94294.03;523700;28;869;-70
2024/01/11 00:00:44;;;;;;;20.63;13.20;;;;;;;-7.62;63.71;94297.41;523643;28;841;-69
2024/01/11 00:01:00;;;;;;;21.17;13.88;;;;;;;-7.56;64.08;94289.66;523594;28;806;-70
2024/01/11 00:01:15;;;;;;;20.87;13.30;;;;;;;-7.52;63.43;94293.78;523694;28;806;-70
2024/01/11 00:01:31;;;;;;;17.35;11.90;;;;;;;-7.47;63.53;94290.59;523604;28;904;-70
2024/01/11 00:01:47;;;;;;;16.13;10.70;;;;;;;-7.43;63.58;94287.88;523671;28;826;-70
2024/01/11 00:02:02;;;;;;;15.18;10.27;;;;;;;-7.38;63.16;94296.19;523651;28;858;-69
2024/01/11 00:02:18;;;;;;;14.40;10.43;;;;;;;-7.33;63.02;94289.56;523664;28;845;-71
2024/01/11 00:02:33;;;;;;;15.93;11.03;;;;;;;-7.31;63.00;94292.59;523648;28;906;-70
2024/01/11 00:02:49;;;;;;;15.77;11.27;;;;;;;-7.29;62.90;94293.69;523646;28;841;-69
2024/01/11 00:03:04;;;;;;;14.27;10.13;;;;;;;-7.25;62.99;94290.94;523729;28;885;-69
2024/01/11 00:03:20;;;;;;;13.88;10.05;;;;;;;-7.22;62.72;94287.44;523656;28;893;-69
2024/01/11 00:03:35;;;;;;;15.93;10.48;;;;;;;-7.19;62.54;94294.66;524156;28;1112;-69
2024/01/11 00:03:51;;;;;;;17.13;10.10;;;;;;;-7.16;62.38;94291.13;525666;28;947;-69
2024/01/11 00:04:06;;;;;;;16.60;10.05;;;;;;;-7.14;62.37;94296.84;525750;28;1221;-69
2024/01/11 00:04:22;;;;;;;16.40;10.00;;;;;;;-7.12;62.21;94289.13;525658;28;1215;-69
2024/01/11 00:04:37;;;;;;;12.27;7.97;;;;;;;-7.12;61.83;94289.13;523553;28;853;-69
2024/01/11 00:04:53;;;;;;;11.80;7.00;;;;;;;-7.12;61.70;94289.13;523379;28;1130;-69
2024/01/11 00:05:09;;;;;;;12.55;7.78;;;;;;;-7.17;61.79;94293.06;523438;28;873;-69
2024/01/11 00:05:24;;;;;;;9.93;7.40;;;;;;;-7.23;61.76;94286.66;521316;28;1151;-69
2024/01/11 00:05:41;;;;;;;10.47;6.90;;;;;;;-7.25;61.79;94293.63;521289;28;1117;-69
2024/01/11 00:05:57;;;;;;;12.13;7.32;;;;;;;-7.24;61.56;94297.81;521389;28;830;-69
2024/01/11 00:06:12;;;;;;;10.70;6.93;;;;;;;-7.24;61.62;94292.47;521484;28;1052;-71
2024/01/11 00:06:27;;;;;;;9.60;7.07;;;;;;;-7.24;62.12;94290.53;521900;28;834;-70
2024/01/11 00:06:44;;;;;;;10.23;7.78;;;;;;;-7.22;62.00;94298.16;523448;28;873;-70
2024/01/11 00:06:59;;;;;;;10.45;7.63;;;;;;;-7.20;61.59;94295.81;523523;28;826;-70
2024/01/11 00:07:15;;;;;;;10.63;7.30;;;;;;;-7.21;61.95;94292.38;523490;28;861;-70
2024/01/11 00:07:30;;;;;;;10.23;7.40;;;;;;;-7.28;61.76;94294.47;523668;28;762;-70
2024/01/11 00:07:45;;;;;;;10.83;7.47;;;;;;;-7.35;61.81;94289.22;523648;28;861;-70
2024/01/11 00:08:01;;;;;;;11.18;7.65;;;;;;;-7.36;61.98;94295.78;523620;28;802;-69
2024/01/11 00:08:16;;;;;;;13.43;8.33;;;;;;;-7.42;61.78;94290.13;523642;28;810;-70
2024/01/11 00:08:32;;;;;;;13.90;8.45;;;;;;;-7.50;62.14;94288.00;523661;28;853;-70
2024/01/11 00:08:47;;;;;;;12.03;7.70;;;;;;;-7.61;62.37;94298.19;523731;28;886;-70
2024/01/11 00:09:03;;;;;;;13.80;7.93;;;;;;;-7.65;62.58;94295.56;523715;28;849;-70
2024/01/11 00:09:19;;;;;;;12.98;8.75;;;;;;;-7.66;62.87;94294.03;523654;28;802;-70
2024/01/11 00:09:38;;;;;;;11.70;8.90;;;;;;;-7.62;62.82;94297.41;523809;28;853;-70
2024/01/11 00:09:53;;;;;;;11.70;8.30;;;;;;;-7.57;62.93;94291.56;523735;28;802;-70
2024/01/11 00:10:09;;;;;;;12.15;8.32;;;;;;;-7.54;62.87;94293.44;523731;28;755;-70
2024/01/11 00:10:24;;;;;;;12.63;8.52;;;;;;;-7.55;63.01;94291.16;523647;28;790;-70
2024/01/11 00:10:40;;;;;;;13.10;8.93;;;;;;;-7.58;62.71;94295.44;523661;28;802;-70
2024/01/11 00:10:55;;;;;;;13.60;9.15;;;;;;;-7.63;63.06;94293.22;523706;28;1032;-70
2024/01/11 00:11:11;;;;;;;14.50;9.60;;;;;;;-7.67;62.78;94289.88;523630;28;1922;-69
2024/01/11 00:11:26;;;;;;;15.90;10.35;;;;;;;-7.71;63.05;94289.19;523609;28;802;-70
2024/01/11 00:11:42;;;;;;;15.70;10.50;;;;;;;-7.76;63.44;94295.00;523710;28;814;-69
2024/01/11 00:11:57;;;;;;;14.70;10.37;;;;;;;-7.77;63.57;94296.16;523741;28;794;-70
2024/01/11 00:12:12;;;;;;;15.48;10.73;;;;;;;-7.80;63.86;94292.41;523596;28;1179;-70
2024/01/11 00:12:28;;;;;;;16.37;11.20;;;;;;;-7.81;63.72;94290.13;523624;28;905;-69
2024/01/11 00:12:43;;;;;;;16.10;11.20;;;;;;;-7.84;63.91;94291.69;523682;28;766;-69
2024/01/11 00:12:59;;;;;;;16.90;10.97;;;;;;;-7.87;64.01;94299.81;523824;28;786;-69
2024/01/11 00:13:14;;;;;;;17.63;11.55;;;;;;;-7.94;64.10;94292.66;523870;28;818;-69
2024/01/11 00:13:30;;;;;;;16.53;11.43;;;;;;;-8.04;64.45;94290.16;523770;28;881;-69
2024/01/11 00:13:45;;;;;;;15.63;10.73;;;;;;;-8.07;64.61;94294.41;523822;28;1151;-69
2024/01/11 00:14:01;;;;;;;14.97;10.47;;;;;;;-8.07;64.54;94291.72;523865;28;852;-69
2024/01/11 00:14:16;;;;;;;14.60;10.95;;;;;;;-8.10;64.59;94300.59;523851;28;810;-69
2024/01/11 00:14:32;;;;;;;15.87;11.63;;;;;;;-8.12;64.66;94294.13;523837;28;834;-70
2024/01/11 00:14:47;;;;;;;15.55;11.55;;;;;;;-8.17;64.75;94298.03;523573;28;787;-70
2024/01/11 00:15:03;;;;;;;15.17;11.43;;;;;;;-8.21;64.91;94294.69;523662;28;861;-70
2024/01/11 00:15:18;;;;;;;18.63;12.70;;;;;;;-8.20;64.79;94292.72;523709;28;845;-70
2024/01/11 00:15:33;;;;;;;19.90;13.60;;;;;;;-8.17;64.89;94290.00;523670;28;809;-70
2024/01/11 00:15:49;;;;;;;19.80;13.38;;;;;;;-8.10;64.93;94294.50;523688;28;869;-70
2024/01/11 00:16:04;;;;;;;19.43;13.17;;;;;;;-8.04;64.78;94290.94;523608;28;924;-70
2024/01/11 00:16:20;;;;;;;21.95;13.30;;;;;;;-7.97;64.59;94290.78;523622;28;1054;-70
2024/01/11 00:16:35;;;;;;;21.30;13.37;;;;;;;-7.90;64.76;94293.34;523635;28;969;-70
2024/01/11 00:16:52;;;;;;;18.80;13.50;;;;;;;-7.85;64.88;94290.19;523846;28;795;-69
2024/01/11 00:17:07;;;;;;;24.88;14.82;;;;;;;-7.82;64.45;94292.03;523871;28;821;-69
2024/01/11 00:17:23;;;;;;;24.40;14.48;;;;;;;-7.79;64.69;94288.53;523724;28;892;-69
2024/01/11 00:17:38;;;;;;;19.50;13.03;;;;;;;-7.77;64.70;94291.56;523684;28;845;-69
2024/01/11 00:17:54;;;;;;;17.98;12.48;;;;;;;-7.73;64.71;94283.47;523827;28;916;-69
2024/01/11 00:18:10;;;;;;;19.13;12.60;;;;;;;-7.71;64.61;94294.53;523825;28;885;-70
2024/01/11 00:18:25;;;;;;;21.63;13.00;;;;;;;-7.69;64.58;94288.75;523865;28;829;-70
2024/01/11 00:18:41;;;;;;;20.20;13.13;;;;;;;-7.67;64.04;94294.47;523817;28;857;-70
2024/01/11 00:18:56;;;;;;;18.63;13.43;;;;;;;-7.65;64.07;94284.84;523730;28;866;-69
2024/01/11 00:19:11;;;;;;;19.40;12.75;;;;;;;-7.64;64.21;94288.28;523884;28;802;-69
2024/01/11 00:19:27;;;;;;;21.03;12.77;;;;;;;-7.62;64.30;94285.94;523754;28;905;-69
2024/01/11 00:19:42;;;;;;;19.53;12.53;;;;;;;-7.59;64.13;94290.47;523822;28;825;-69
2024/01/11 00:19:58;;;;;;;18.50;12.47;;;;;;;-7.59;63.89;94285.13;523836;28;786;-69
2024/01/11 00:20:13;;;;;;;17.43;12.30;;;;;;;-7.59;63.65;94288.56;523845;28;774;-69
2024/01/11 00:20:29;;;;;;;18.65;11.38;;;;;;;-7.58;64.05;94284.72;523739;28;1039;-69
2024/01/11 00:20:44;;;;;;;19.10;11.20;;;;;;;-7.59;63.94;94290.47;523858;28;778;-69
2024/01/11 00:21:00;;;;;;;17.13;11.63;;;;;;;-7.59;63.77;94290.47;523781;28;881;-69
2024/01/11 00:21:16;;;;;;;18.05;11.70;;;;;;;-7.62;63.68;94283.28;523671;28;945;-69
2024/01/11 00:21:31;;;;;;;17.60;11.20;;;;;;;-7.64;63.74;94291.72;523597;28;1120;-70
2024/01/11 00:21:47;;;;;;;16.40;10.85;;;;;;;-7.66;63.91;94294.03;523519;28;894;-69
2024/01/11 00:22:02;;;;;;;16.43;11.00;;;;;;;-7.72;63.83;94285.75;523673;28;778;-69
2024/01/11 00:22:17;;;;;;;16.70;11.00;;;;;;;-7.71;63.82;94286.50;523626;28;908;-69
2024/01/11 00:22:33;;;;;;;16.90;11.30;;;;;;;-7.73;63.71;94283.47;523662;28;1074;-70
2024/01/11 00:22:48;;;;;;;16.85;11.10;;;;;;;-7.76;63.78;94289.66;523589;28;910;-69
2024/01/11 00:23:04;;;;;;;16.67;10.37;;;;;;;-7.79;63.86;94287.78;523664;28;1427;-69
2024/01/11 00:23:19;;;;;;;17.83;10.55;;;;;;;-7.78;63.59;94295.44;523581;28;754;-69
2024/01/11 00:23:34;;;;;;;17.07;10.63;;;;;;;-7.79;63.69;94288.53;523651;28;821;-69
2024/01/11 00:23:50;;;;;;;16.87;10.60;;;;;;;-7.81;63.72;94287.44;523642;28;762;-69
2024/01/11 00:24:05;;;;;;;17.17;11.43;;;;;;;-7.80;63.50;94288.97;523641;28;778;-69
2024/01/11 00:24:21;;;;;;;15.47;11.60;;;;;;;-7.81;63.94;94287.44;523656;28;770;-69
2024/01/11 00:24:36;;;;;;;15.70;11.35;;;;;;;-7.82;63.52;94289.34;523616;28;913;-70
2024/01/11 00:24:52;;;;;;;17.07;10.90;;;;;;;-7.83;63.70;94287.09;523714;28;813;-70
2024/01/11 00:25:08;;;;;;;17.95;10.32;;;;;;;-7.86;63.64;94283.31;523668;28;822;-70
2024/01/11 00:25:23;;;;;;;14.90;9.82;;;;;;;-7.89;63.64;94286.81;523675;28;930;-70
2024/01/11 00:25:39;;;;;;;13.87;9.43;;;;;;;-7.91;63.64;94288.41;523666;28;952;-70
2024/01/11 00:25:54;;;;;;;15.68;9.60;;;;;;;-7.93;63.96;94288.06;523365;28;877;-70
2024/01/11 00:26:12;;;;;;;14.73;9.47;;;;;;;-7.93;63.76;94285.38;523506;28;1026;-70
2024/01/11 00:26:28;;;;;;;13.25;9.52;;;;;;;-7.93;63.83;94288.81;523432;28;1060;-70
2024/01/11 00:26:43;;;;;;;13.90;9.60;;;;;;;-7.93;63.81;94283.47;523463;28;861;-70
2024/01/11 00:26:59;;;;;;;13.23;9.05;;;;;;;-7.92;64.03;94284.19;523537;28;881;-69
2024/01/11 00:27:14;;;;;;;12.47;8.80;;;;;;;-7.91;63.68;94286.47;523471;28;770;-69
2024/01/11 00:27:30;;;;;;;17.00;9.95;;;;;;;-7.91;63.95;94281.13;523482;28;854;-69
2024/01/11 00:27:45;;;;;;;17.23;10.93;;;;;;;-7.88;63.78;94293.69;523482;28;782;-69
2024/01/11 00:28:01;;;;;;;15.77;11.40;;;;;;;-7.88;63.72;94285.66;523650;28;873;-69
2024/01/11 00:28:17;;;;;;;16.55;10.70;;;;;;;-7.84;63.81;94280.25;523599;28;909;-70
2024/01/11 00:28:32;;;;;;;15.83;10.10;;;;;;;-7.84;63.83;94280.97;523607;28;1016;-70
2024/01/11 00:28:48;;;;;;;13.40;10.13;;;;;;;-7.80;63.66;94280.94;523625;28;861;-70
2024/01/11 00:29:03;;;;;;;12.93;9.87;;;;;;;-7.79;63.64;94287.78;523634;28;773;-70
2024/01/11 00:29:18;;;;;;;15.02;9.77;;;;;;;-7.77;63.89;94280.84;523646;28;825;-70
2024/01/11 00:29:35;;;;;;;14.83;9.50;;;;;;;-7.75;63.72;94283.09;523706;28;865;-70
2024/01/11 00:29:51;;;;;;;15.35;9.93;;;;;;;-7.73;63.58;94278.13;523611;28;813;-70
2024/01/11 00:30:07;;;;;;;18.42;10.30;;;;;;;-7.74;63.82;94280.03;523544;28;905;-70
2024/01/11 00:30:23;;;;;;;18.15;10.60;;;;;;;-7.75;63.50;94273.16;523618;28;907;-70
2024/01/11 00:30:38;;;;;;;14.85;10.10;;;;;;;-7.79;63.82;94277.81;523661;28;893;-70
2024/01/11 00:30:54;;;;;;;14.53;10.40;;;;;;;-7.86;63.57;94277.22;523590;28;837;-70
2024/01/11 00:31:10;;;;;;;14.88;10.25;;;;;;;-8.18;63.93;94245.63;523687;28;786;-70
2024/01/11 00:31:27;;;;;;;15.60;10.93;;;;;;;-7.97;64.01;94280.06;523432;28;1942;-70
2024/01/11 00:31:42;;;;;;;17.40;11.80;;;;;;;-8.04;63.70;94274.84;523561;28;822;-70
2024/01/11 00:31:58;;;;;;;15.60;10.73;;;;;;;-8.06;63.95;94279.88;523662;28;751;-70
2024/01/11 00:32:13;;;;;;;14.32;10.55;;;;;;;-8.08;64.62;94279.53;523687;28;793;-70
2024/01/11 00:32:29;;;;;;;16.23;11.43;;;;;;;-8.13;64.46;94279.97;523647;28;917;-70
2024/01/11 00:32:44;;;;;;;19.90;11.85;;;;;;;-8.10;64.74;94268.44;523635;28;833;-70
2024/01/11 00:32:59;;;;;;;21.80;12.13;;;;;;;-8.06;64.72;94271.84;523411;28;778;-70
2024/01/11 00:33:15;;;;;;;19.43;11.97;;;;;;;-8.00;64.53;94278.22;523414;28;901;-70
2024/01/11 00:33:30;;;;;;;16.30;11.10;;;;;;;-7.93;64.60;94271.97;523497;28;778;-70
2024/01/11 00:33:46;;;;;;;16.00;11.48;;;;;;;-7.89;64.36;94272.66;523460;28;881;-70
2024/01/11 00:34:01;;;;;;;16.37;11.93;;;;;;;-7.83;64.36;94266.41;523502;28;829;-70
2024/01/11 00:34:17;;;;;;;17.00;11.48;;;;;;;-7.77;64.24;94264.00;523350;28;846;-69
2024/01/11 00:34:32;;;;;;;19.67;11.83;;;;;;;-7.72;63.73;94266.97;523531;28;1050;-69
2024/01/11 00:34:48;;;;;;;19.53;12.53;;;;;;;-7.67;63.97;94267.66;523464;28;860;-69
2024/01/11 00:35:03;;;;;;;18.15;12.50;;;;;;;-7.64;63.68;94270.25;523652;28;857;-69
2024/01/11 00:35:19;;;;;;;20.05;13.23;;;;;;;-7.60;63.63;94268.25;523638;28;806;-70
2024/01/11 00:35:34;;;;;;;19.53;13.70;;;;;;;-7.57;63.64;94264.75;523527;28;892;-70
2024/01/11 00:35:50;;;;;;;17.73;12.88;;;;;;;-7.54;63.01;94271.22;523587;28;841;-70
2024/01/11 00:36:05;;;;;;;20.87;13.50;;;;;;;-7.53;63.07;94265.44;523650;28;829;-70
2024/01/11 00:36:21;;;;;;;23.23;14.93;;;;;;;-7.50;62.89;94269.22;523639;28;936;-70
2024/01/11 00:36:36;;;;;;;21.07;14.63;;;;;;;-7.57;62.84;94267.44;523786;28;841;-70
2024/01/11 00:36:52;;;;;;;19.83;13.55;;;;;;;-7.64;62.89;94266.84;523768;28;783;-70
2024/01/11 00:37:07;;;;;;;18.00;12.20;;;;;;;-7.76;63.04;94263.59;523784;28;813;-70
2024/01/11 00:37:23;;;;;;;13.20;9.07;;;;;;;-7.79;63.17;94256.38;523751;28;892;-70
2024/01/11 00:37:38;;;;;;;10.40;6.60;;;;;;;-7.79;63.07;94261.75;523836;28;774;-70
2024/01/11 00:37:54;;;;;;;9.38;5.72;;;;;;;-7.77;63.13;94267.44;523821;28;895;-70
2024/01/11 00:38:09;;;;;;;7.10;5.13;;;;;;;-7.75;63.58;94257.06;523846;28;762;-70
2024/01/11 00:38:25;;;;;;;7.40;5.40;;;;;;;-7.73;63.19;94260.09;523720;28;781;-69
2024/01/11 00:38:40;;;;;;;8.53;5.90;;;;;;;-7.69;63.26;94254.69;523832;28;857;-69
2024/01/11 00:38:56;;;;;;;7.70;5.53;;;;;;;-7.67;63.61;94262.28;523853;28;781;-69
2024/01/11 00:39:11;;;;;;;7.23;5.27;;;;;;;-7.68;63.55;94255.41;523889;28;837;-70
2024/01/11 00:39:27;;;;;;;7.45;5.22;;;;;;;-7.66;63.75;94266.47;523759;28;829;-70
2024/01/11 00:39:43;;;;;;;5.97;4.93;;;;;;;-7.64;63.77;94250.75;523758;28;840;-70
2024/01/11 00:39:59;;;;;;;6.40;4.63;;;;;;;-7.64;63.68;94253.44;523874;28;841;-69
2024/01/11 00:40:14;;;;;;;6.00;4.30;;;;;;;-7.62;63.69;94251.84;523884;28;757;-69
2024/01/11 00:40:29;;;;;;;4.93;4.20;;;;;;;-7.59;63.64;94260.97;523809;28;769;-70
2024/01/11 00:40:45;;;;;;;5.00;4.03;;;;;;;-7.58;63.65;94249.88;523788;28;873;-70
2024/01/11 00:41:00;;;;;;;5.47;4.22;;;;;;;-7.55;63.39;94253.63;523782;28;900;-70
2024/01/11 00:41:16;;;;;;;7.50;4.60;;;;;;;-7.54;63.33;94249.78;523751;28;861;-70
2024/01/11 00:41:32;;;;;;;7.15;4.55;;;;;;;-7.53;63.06;94251.28;523751;28;853;-70
2024/01/11 00:41:47;;;;;;;5.68;4.30;;;;;;;-7.51;62.97;94254.31;523717;28;774;-70
2024/01/11 00:42:03;;;;;;;7.97;4.70;;;;;;;-7.56;63.11;94241.41;523796;28;734;-70
2024/01/11 00:42:19;;;;;;;10.80;5.43;;;;;;;-7.48;63.15;94248.13;523855;28;833;-70
2024/01/11 00:42:34;;;;;;;9.75;5.53;;;;;;;-7.47;63.08;94244.28;523765;28;860;-70
2024/01/11 00:42:50;;;;;;;7.17;5.20;;;;;;;-7.45;63.13;94248.03;523817;28;1053;-69
2024/01/11 00:43:05;;;;;;;6.53;5.18;;;;;;;-7.42;63.12;94251.81;523793;28;864;-69
2024/01/11 00:43:21;;;;;;;7.20;5.10;;;;;;;-7.40;62.96;94249.47;523812;28;1083;-70
2024/01/11 00:43:36;;;;;;;8.98;4.95;;;;;;;-7.40;62.80;94249.47;523896;28;774;-70
2024/01/11 00:43:51;;;;;;;8.70;5.10;;;;;;;-7.38;63.13;94250.56;523757;28;821;-70
2024/01/11 00:44:07;;;;;;;7.38;5.35;;;;;;;-7.38;62.96;94247.91;523848;28;770;-70
2024/01/11 00:44:22;;;;;;;7.80;5.50;;;;;;;-7.39;63.25;94242.97;523825;28;815;-70
2024/01/11 00:44:38;;;;;;;7.60;5.15;;;;;;;-7.39;62.91;94245.63;523793;28;786;-69
2024/01/11 00:44:53;;;;;;;6.37;4.60;;;;;;;-7.38;63.12;94253.25;523826;28;841;-69
2024/01/11 00:45:09;;;;;;;6.40;4.60;;;;;;;-7.36;63.08;94247.50;523849;28;853;-70
2024/01/11 00:45:24;;;;;;;7.03;4.73;;;;;;;-7.35;63.05;94247.09;523792;28;758;-70
2024/01/11 00:45:40;;;;;;;6.63;4.80;;;;;;;-7.33;63.25;94243.97;523706;28;961;-70
2024/01/11 00:45:55;;;;;;;8.63;6.73;;;;;;;-7.32;63.10;94242.81;523636;28;861;-70
2024/01/11 00:46:11;;;;;;;10.82;8.32;;;;;;;-7.55;62.74;94210.72;523619;28;900;-70
2024/01/11 00:46:26;;;;;;;11.93;8.83;;;;;;;-7.29;62.59;94247.34;523601;28;1156;-69
2024/01/11 00:46:42;;;;;;;19.15;11.30;;;;;;;-7.50;62.92;94218.28;523617;28;825;-70
2024/01/11 00:46:57;;;;;;;25.03;13.87;;;;;;;-7.31;63.06;94244.31;523580;28;838;-70
2024/01/11 00:47:13;;;;;;;24.98;14.63;;;;;;;-7.31;62.90;94244.31;523654;28;806;-70
2024/01/11 00:47:28;;;;;;;24.27;14.67;;;;;;;-7.30;63.01;94243.16;523580;28;842;-70
2024/01/11 00:47:43;;;;;;;25.50;15.25;;;;;;;-7.29;62.67;94247.34;523665;28;825;-70
2024/01/11 00:47:59;;;;;;;23.63;14.40;;;;;;;-7.28;62.82;94246.19;523356;28;2412;-70
2024/01/11 00:48:14;;;;;;;25.08;14.27;;;;;;;-7.27;62.80;94247.66;523448;28;962;-70
2024/01/11 00:48:30;;;;;;;26.40;14.43;;;;;;;-7.26;62.96;94241.16;523423;28;846;-69
2024/01/11 00:48:45;;;;;;;26.67;13.97;;;;;;;-7.26;63.00;94241.91;523509;28;853;-69
2024/01/11 00:49:01;;;;;;;24.80;13.70;;;;;;;-7.25;62.72;94242.66;523489;28;829;-69
2024/01/11 00:49:16;;;;;;;21.53;13.80;;;;;;;-7.27;62.76;94237.72;523465;28;778;-70
2024/01/11 00:49:31;;;;;;;21.45;14.23;;;;;;;-7.29;62.86;94236.59;523402;28;810;-69
2024/01/11 00:49:47;;;;;;;20.87;13.97;;;;;;;-7.28;62.73;94236.22;523484;28;854;-69
2024/01/11 00:50:02;;;;;;;21.88;13.48;;;;;;;-7.49;62.64;94209.09;523663;28;794;-69
2024/01/11 00:50:18;;;;;;;21.60;13.37;;;;;;;-7.25;62.71;94239.97;523602;28;850;-69
2024/01/11 00:50:33;;;;;;;21.70;13.02;;;;;;;-7.25;62.77;94235.34;523650;28;789;-69
2024/01/11 00:50:49;;;;;;;21.90;12.80;;;;;;;-7.23;62.58;94238.38;523499;28;932;-69
2024/01/11 00:51:05;;;;;;;20.60;13.48;;;;;;;-7.46;62.46;94197.50;523646;28;837;-69
2024/01/11 00:51:20;;;;;;;21.85;14.68;;;;;;;-7.22;62.48;94236.47;523564;28;1914;-69
2024/01/11 00:51:36;;;;;;;21.08;14.30;;;;;;;-7.21;62.58;94233.34;523620;28;857;-69
2024/01/11 00:51:51;;;;;;;19.10;13.40;;;;;;;-7.21;62.58;94235.31;523513;28;850;-69
2024/01/11 00:52:07;;;;;;;17.40;12.63;;;;;;;-7.23;61.98;94237.63;523570;28;848;-69
2024/01/11 00:52:22;;;;;;;19.77;13.10;;;;;;;-7.28;62.00;94235.44;523671;28;864;-69
2024/01/11 00:52:38;;;;;;;20.87;12.93;;;;;;;-7.31;62.41;94233.59;523682;28;873;-69
2024/01/11 00:52:53;;;;;;;19.50;12.90;;;;;;;-7.30;62.11;94232.44;523820;28;777;-69
2024/01/11 00:53:10;;;;;;;22.38;13.95;;;;;;;-7.28;62.17;94238.88;523849;28;790;-69
2024/01/11 00:53:30;;;;;;;24.60;14.77;;;;;;;-7.24;62.10;94228.06;523747;28;913;-70
2024/01/11 00:53:45;;;;;;;23.65;15.35;;;;;;;-7.21;61.67;94230.66;523712;28;893;-70
2024/01/11 00:54:01;;;;;;;25.42;16.55;;;;;;;-7.17;61.78;94228.66;523861;28;861;-69
2024/01/11 00:54:16;;;;;;;25.73;16.77;;;;;;;-7.14;61.38;94235.13;523823;28;893;-69
2024/01/11 00:54:32;;;;;;;26.77;17.42;;;;;;;-7.12;61.45;94232.78;523833;28;836;-69
2024/01/11 00:54:47;;;;;;;29.03;18.50;;;;;;;-7.13;61.72;94228.59;523785;28;786;-69
2024/01/11 00:55:03;;;;;;;25.10;16.03;;;;;;;-7.15;61.67;94233.63;523743;28;900;-69
2024/01/11 00:55:18;;;;;;;22.10;13.57;;;;;;;-7.21;61.65;94229.94;523791;28;1565;-69
2024/01/11 00:55:34;;;;;;;20.92;13.65;;;;;;;-7.25;61.72;94231.91;523817;28;896;-69
2024/01/11 00:55:51;;;;;;;24.30;14.43;;;;;;;-7.31;61.55;94230.91;523789;28;762;-70
2024/01/11 00:56:15;;;;;;;27.80;14.60;;;;;;;-7.38;61.99;94231.03;523804;28;822;-69
2024/01/11 00:56:30;;;;;;;24.00;14.00;;;;;;;-7.47;62.06;94222.81;523591;28;846;-70
2024/01/11 00:56:46;;;;;;;23.87;14.27;;;;;;;-7.42;62.12;94228.44;523683;28;859;-70
2024/01/11 00:57:01;;;;;;;23.17;14.53;;;;;;;-7.41;61.95;94234.56;523297;28;1379;-70
2024/01/11 00:57:17;;;;;;;20.52;14.25;;;;;;;-7.42;62.04;94227.69;523416;28;794;-69
2024/01/11 00:57:32;;;;;;;18.40;13.87;;;;;;;-7.40;62.02;94236.06;523480;28;909;-70
2024/01/11 00:57:48;;;;;;;19.33;13.83;;;;;;;-7.40;62.08;94233.38;523326;28;793;-70
2024/01/11 00:58:03;;;;;;;21.67;14.27;;;;;;;-7.40;62.15;94230.72;523552;28;861;-69
2024/01/11 00:58:19;;;;;;;21.37;14.30;;;;;;;-7.43;62.02;94229.63;523575;28;770;-69
2024/01/11 00:58:34;;;;;;;20.43;14.00;;;;;;;-7.41;62.09;94237.25;523653;28;822;-69
2024/01/11 00:58:49;;;;;;;22.85;13.90;;;;;;;-7.44;61.85;94233.47;523666;28;833;-69
2024/01/11 00:59:05;;;;;;;22.20;12.97;;;;;;;-7.44;61.62;94232.72;523737;28;758;-70
2024/01/11 00:59:20;;;;;;;20.52;12.80;;;;;;;-7.47;61.80;94226.25;523840;28;794;-69
2024/01/11 00:59:36;;;;;;;19.47;12.63;;;;;;;-7.47;61.81;94228.19;523850;28;896;-69
2024/01/11 00:59:51;;;;;;;17.63;11.65;;;;;;;-7.47;61.94;94236.25;523799;28;838;-69
2024/01/11 01:00:07;;;;;;;16.87;11.13;;;;;;;-7.50;61.95;94232.44;523822;28;846;-69
2024/01/11 01:00:23;;;;;;;16.90;10.50;;;;;;;-7.53;62.09;94229.81;523668;28;893;-69
2024/01/11 01:00:38;;;;;;;15.03;9.50;;;;;;;-7.55;61.95;94227.56;523725;28;790;-70
2024/01/11 01:00:54;;;;;;;14.53;9.73;;;;;;;-7.55;61.97;94234.84;523812;28;904;-70
2024/01/11 01:01:10;;;;;;;16.00;10.88;;;;;;;-7.55;62.07;94229.50;523824;28;865;-69
2024/01/11 01:01:25;;;;;;;14.55;10.43;;;;;;;-7.55;62.25;94227.56;523734;28;836;-69
2024/01/11 01:01:47;;;;;;;15.27;10.32;;;;;;;-7.55;61.98;94229.50;523801;28;829;-69
2024/01/11 01:02:02;;;;;;;18.25;10.27;;;;;;;-7.57;62.11;94229.91;523623;28;826;-70
2024/01/11 01:02:20;;;;;;;13.98;9.60;;;;;;;-7.62;62.08;94224.28;523768;28;782;-69
2024/01/11 01:02:35;;;;;;;12.35;9.25;;;;;;;-7.60;62.10;94235.34;523793;28;880;-69
2024/01/11 01:02:51;;;;;;;14.83;9.53;;;;;;;-7.62;61.85;94229.66;523808;28;770;-69
2024/01/11 01:03:06;;;;;;;15.43;9.13;;;;;;;-7.63;62.11;94231.56;523775;28;809;-69
2024/01/11 01:03:22;;;;;;;14.63;8.30;;;;;;;-7.66;62.08;94227.03;523694;28;774;-69
2024/01/11 01:03:38;;;;;;;13.15;7.78;;;;;;;-7.66;62.01;94228.94;523792;28;1089;-69
2024/01/11 01:03:54;;;;;;;11.55;7.55;;;;;;;-7.68;62.37;94231.28;523754;28;846;-69
2024/01/11 01:04:09;;;;;;;10.83;7.90;;;;;;;-7.73;62.01;94227.91;523788;28;830;-69
2024/01/11 01:04:25;;;;;;;13.20;8.73;;;;;;;-7.75;62.31;94235.63;524114;28;1184;-69
2024/01/11 01:04:40;;;;;;;14.83;8.80;;;;;;;-7.76;62.25;94233.38;525724;28;1040;-69
2024/01/11 01:04:55;;;;;;;11.93;7.93;;;;;;;-7.80;62.32;94230.00;525856;28;786;-69
2024/01/11 01:05:11;;;;;;;9.33;7.17;;;;;;;-7.81;62.23;94231.16;525930;28;761;-69
2024/01/11 01:05:27;;;;;;;12.98;7.50;;;;;;;-7.84;62.30;94232.72;525854;28;884;-69
2024/01/11 01:05:43;;;;;;;13.73;7.73;;;;;;;-7.84;62.37;94232.72;525735;28;1266;-69
2024/01/11 01:05:58;;;;;;;11.32;7.50;;;;;;;-7.88;62.32;94242.75;525865;28;849;-69
2024/01/11 01:06:14;;;;;;;11.18;7.03;;;;;;;-7.89;62.51;94229.78;525864;28;789;-69
2024/01/11 01:06:29;;;;;;;11.50;7.20;;;;;;;-7.90;62.36;94238.97;525924;28;746;-69
2024/01/11 01:06:45;;;;;;;11.55;7.38;;;;;;;-7.93;62.50;94237.91;525861;28;817;-69
2024/01/11 01:07:00;;;;;;;10.38;6.32;;;;;;;-7.95;62.71;94237.53;525800;28;848;-69
2024/01/11 01:07:16;;;;;;;9.33;6.40;;;;;;;-7.96;62.65;94236.03;525864;28;1098;-69
2024/01/11 01:07:31;;;;;;;10.18;7.10;;;;;;;-7.98;62.71;94235.69;525771;28;809;-69
2024/01/11 01:07:46;;;;;;;10.57;6.67;;;;;;;-8.01;62.70;94230.41;525814;28;781;-69
2024/01/11 01:08:02;;;;;;;9.43;6.10;;;;;;;-8.02;62.69;94239.59;525858;28;852;-69
2024/01/11 01:08:17;;;;;;;9.73;6.57;;;;;;;-8.08;62.70;94239.34;525892;28;857;-69
2024/01/11 01:08:33;;;;;;;10.27;6.70;;;;;;;-8.11;62.67;94239.38;525819;28;785;-69
2024/01/11 01:08:48;;;;;;;11.40;6.50;;;;;;;-8.12;62.72;94237.88;525779;28;881;-69
2024/01/11 01:09:04;;;;;;;11.10;6.83;;;;;;;-8.17;62.87;94241.78;525939;28;813;-70
2024/01/11 01:09:19;;;;;;;11.05;7.47;;;;;;;-8.20;62.80;94237.25;525906;28;801;-70
2024/01/11 01:09:35;;;;;;;11.27;7.80;;;;;;;-8.22;62.93;94239.56;525840;28;852;-70
2024/01/11 01:09:50;;;;;;;11.13;7.25;;;;;;;-8.27;63.01;94240.06;525903;28;857;-70
2024/01/11 01:10:07;;;;;;;13.20;7.10;;;;;;;-8.29;63.22;94241.66;525848;28;889;-69
2024/01/11 01:10:23;;;;;;;10.98;6.60;;;;;;;-8.50;63.22;94213.31;525813;28;951;-69
2024/01/11 01:10:39;;;;;;;10.37;6.67;;;;;;;-8.37;63.38;94240.25;525835;28;905;-69
2024/01/11 01:10:54;;;;;;;10.95;7.28;;;;;;;-8.51;63.38;94230.56;525898;28;789;-69
2024/01/11 01:11:10;;;;;;;10.05;7.35;;;;;;;-8.48;63.63;94237.75;525867;28;806;-69
2024/01/11 01:11:26;;;;;;;10.43;7.87;;;;;;;-8.50;63.62;94234.75;525730;28;1906;-69
2024/01/11 01:11:41;;;;;;;10.93;7.97;;;;;;;-8.49;63.87;94235.50;525867;28;813;-69
2024/01/11 01:11:56;;;;;;;10.87;7.77;;;;;;;-8.50;63.82;94234.75;525846;28;841;-69
2024/01/11 01:12:12;;;;;;;12.98;7.72;;;;;;;-8.49;63.79;94246.97;524038;28;1146;-69
2024/01/11 01:12:28;;;;;;;12.67;7.80;;;;;;;-8.48;63.74;94245.78;523721;28;758;-69
2024/01/11 01:12:44;;;;;;;12.82;8.48;;;;;;;-8.47;63.79;94238.53;523756;28;936;-70
2024/01/11 01:12:59;;;;;;;13.87;8.60;;;;;;;-8.48;63.94;94237.75;523669;28;893;-70
2024/01/11 01:13:14;;;;;;;14.38;8.32;;;;;;;-8.49;63.92;94236.28;523785;28;829;-70
2024/01/11 01:13:30;;;;;;;15.10;8.27;;;;;;;-8.49;63.86;94230.91;523714;28;829;-70
2024/01/11 01:13:46;;;;;;;13.30;8.05;;;;;;;-8.49;63.64;94233.59;523751;28;810;-70
2024/01/11 01:14:01;;;;;;;10.60;7.37;;;;;;;-8.46;63.94;94235.44;523796;28;775;-70
2024/01/11 01:14:16;;;;;;;10.75;7.10;;;;;;;-8.43;63.69;94239.22;523746;28;791;-70
2024/01/11 01:14:32;;;;;;;11.13;7.23;;;;;;;-8.41;63.59;94237.66;523695;28;850;-70
2024/01/11 01:14:47;;;;;;;10.40;7.18;;;;;;;-8.39;63.64;94234.56;523766;28;821;-70
2024/01/11 01:15:03;;;;;;;9.73;6.97;;;;;;;-8.38;63.56;94236.81;523766;28;845;-70